createdAt,value
2019-04-03T00:03:45.807Z,9.63
2019-04-03T00:08:53.198Z,8.68
2019-04-03T00:13:59.018Z,7.50
2019-04-03T00:19:05.590Z,7.40
2019-04-03T00:24:11.671Z,7.33
2019-04-03T00:29:17.577Z,8.08
2019-04-03T00:34:23.920Z,5.50
2019-04-03T00:39:29.748Z,5.47
2019-04-03T00:44:35.658Z,6.72
2019-04-03T00:49:41.372Z,4.58
2019-04-03T00:54:48.699Z,5.67
2019-04-03T00:59:56.503Z,4.85
2019-04-03T01:05:02.589Z,5.25
2019-04-03T01:10:08.358Z,4.55
2019-04-03T01:15:14.187Z,5.55
2019-04-03T01:20:20.493Z,4.35
2019-04-03T01:25:26.447Z,5.12
2019-04-03T01:30:32.268Z,4.20
2019-04-03T01:35:37.903Z,4.30
2019-04-03T01:40:43.473Z,3.90
2019-04-03T01:45:49.526Z,4.12
2019-04-03T01:50:55.728Z,4.20
2019-04-03T01:56:02.700Z,4.60
2019-04-03T02:01:08.921Z,5.97
2019-04-03T02:06:14.771Z,4.25
2019-04-03T02:11:20.698Z,4.42
2019-04-03T02:16:26.718Z,5.42
2019-04-03T02:21:31.948Z,4.60
2019-04-03T02:26:37.737Z,4.53
2019-04-03T02:31:43.608Z,4.03
2019-04-03T02:36:49.588Z,4.87
2019-04-03T02:41:55.380Z,5.28
2019-04-03T02:47:01.466Z,4.45
2019-04-03T02:52:07.390Z,3.70
2019-04-03T02:57:16.238Z,4.40
2019-04-03T03:02:20.705Z,4.08
2019-04-03T03:07:26.651Z,4.00
2019-04-03T03:12:33.072Z,4.45
2019-04-03T03:17:39.059Z,3.50
2019-04-03T03:22:44.745Z,3.52
2019-04-03T03:27:50.634Z,3.92
2019-04-03T03:33:21.643Z,3.67
2019-04-03T03:38:07.093Z,4.78
2019-04-03T03:43:11.702Z,3.67
2019-04-03T03:48:17.511Z,3.30
2019-04-03T03:53:23.466Z,3.75
2019-04-03T03:58:29.698Z,3.67
2019-04-03T04:03:36.008Z,3.92
2019-04-03T04:08:44.198Z,3.55
2019-04-03T04:13:49.808Z,4.58
2019-04-03T04:18:57.749Z,4.15
2019-04-03T04:24:03.466Z,3.35
2019-04-03T04:29:10.734Z,3.37
2019-04-03T04:34:18.310Z,3.17
2019-04-03T04:39:24.058Z,3.15
2019-04-03T04:44:29.737Z,3.08
2019-04-03T04:49:35.610Z,3.08
2019-04-03T04:54:42.882Z,3.35
2019-04-03T04:59:49.027Z,3.75
2019-04-03T05:04:55.897Z,3.55
2019-04-03T05:10:02.314Z,3.40
2019-04-03T05:15:08.269Z,3.10
2019-04-03T05:20:14.248Z,3.20
2019-04-03T05:25:20.212Z,3.25
2019-04-03T05:30:32.286Z,5.53
2019-04-03T05:35:38.368Z,4.03
2019-04-03T05:40:44.030Z,3.47
2019-04-03T05:45:49.977Z,4.28
2019-04-03T05:50:57.657Z,4.35
2019-04-03T05:56:03.107Z,5.53
2019-04-03T06:01:11.458Z,2.83
2019-04-03T06:06:16.688Z,3.72
2019-04-03T06:11:22.468Z,2.70
2019-04-03T06:16:28.599Z,10.25
2019-04-03T06:21:35.955Z,3.85
2019-04-03T06:26:44.882Z,2.98
2019-04-03T06:31:50.317Z,4.45
2019-04-03T06:36:57.489Z,3.10
2019-04-03T06:42:03.399Z,2.50
2019-04-03T06:47:27.919Z,2.98
2019-04-03T06:52:34.069Z,4.37
2019-04-03T06:57:40.267Z,5.00
2019-04-03T07:02:46.322Z,3.83
2019-04-03T07:07:52.156Z,3.22
2019-04-03T07:12:57.930Z,4.70
2019-04-03T07:18:05.706Z,2.72
2019-04-03T07:23:11.576Z,2.27
2019-04-03T07:28:17.849Z,2.55
2019-04-03T07:33:23.678Z,2.50
2019-04-03T07:38:30.348Z,2.87
2019-04-03T07:43:36.772Z,2.35
2019-04-03T07:48:42.757Z,2.30
2019-04-03T07:53:50.595Z,2.52
2019-04-03T07:58:56.489Z,2.05
2019-04-03T08:04:02.618Z,2.42
2019-04-03T08:09:10.491Z,2.98
2019-04-03T08:14:19.052Z,3.77
2019-04-03T08:19:24.322Z,2.80
2019-04-03T08:24:30.439Z,2.33
2019-04-03T08:29:38.234Z,3.85
2019-04-03T08:34:44.306Z,4.97
2019-04-03T08:39:50.316Z,2.65
2019-04-03T08:44:56.338Z,3.22
2019-04-03T08:50:02.560Z,3.35
2019-04-03T08:55:08.492Z,3.25
2019-04-03T09:00:14.239Z,3.40
2019-04-03T09:05:20.565Z,3.27
2019-04-03T09:10:26.197Z,2.55
2019-04-03T09:15:32.040Z,6.17
2019-04-03T09:20:37.858Z,6.65
2019-04-03T09:25:43.858Z,6.75
2019-04-03T09:30:49.676Z,5.47
2019-04-03T09:35:58.772Z,5.22
2019-04-03T09:41:03.197Z,3.20
2019-04-03T09:46:08.959Z,9.73
2019-04-03T09:51:16.068Z,4.05
2019-04-03T09:56:22.292Z,13.08
2019-04-03T10:01:28.657Z,8.28
2019-04-03T10:06:34.707Z,7.42
2019-04-03T10:11:40.677Z,10.40
2019-04-03T10:16:46.567Z,7.08
2019-04-03T10:21:53.421Z,5.33
2019-04-03T10:26:59.407Z,5.65
2019-04-03T10:32:05.097Z,4.22
2019-04-03T10:37:13.818Z,4.00
2019-04-03T10:42:18.293Z,6.87
2019-04-03T10:47:39.171Z,4.55
2019-04-03T10:52:32.764Z,6.70
2019-04-03T10:57:38.610Z,7.20
2019-04-03T11:02:44.443Z,11.10
2019-04-03T11:07:50.767Z,8.70
2019-04-03T11:12:56.730Z,6.47
2019-04-03T11:18:02.896Z,8.05
2019-04-03T11:23:08.992Z,7.20
2019-04-03T11:28:16.317Z,6.47
2019-04-03T11:33:22.343Z,6.53
2019-04-03T11:38:29.494Z,6.50
2019-04-03T11:43:37.391Z,7.20
2019-04-03T11:48:43.844Z,6.33
2019-04-03T11:53:50.357Z,4.72
2019-04-03T11:58:56.738Z,3.65
2019-04-03T12:04:02.750Z,3.35
2019-04-03T12:09:09.857Z,12.58
2019-04-03T12:14:17.116Z,10.93
2019-04-03T12:19:22.948Z,6.37
2019-04-03T12:24:28.985Z,7.47
2019-04-03T12:29:35.403Z,11.05
2019-04-03T12:34:41.628Z,8.70
2019-04-03T12:39:47.407Z,9.75
2019-04-03T12:45:13.467Z,6.30
2019-04-03T12:50:19.455Z,10.10
2019-04-03T12:55:26.331Z,4.53
2019-04-03T13:00:32.720Z,3.62
2019-04-03T13:05:38.957Z,3.27
2019-04-03T13:10:47.541Z,3.45
2019-04-03T13:15:52.547Z,4.30
2019-04-03T13:20:58.839Z,4.33
2019-04-03T13:26:05.251Z,4.08
2019-04-03T13:31:11.152Z,4.12
2019-04-03T13:36:18.752Z,4.03
2019-04-03T13:41:24.624Z,4.65
2019-04-03T13:46:30.971Z,3.85
2019-04-03T13:51:37.411Z,4.60
2019-04-03T13:56:43.918Z,4.58
2019-04-03T14:01:49.879Z,6.05
2019-04-03T14:06:56.210Z,3.12
2019-04-03T14:12:04.919Z,3.15
2019-04-03T14:17:09.667Z,3.02
2019-04-03T14:22:15.663Z,3.05
2019-04-03T14:27:24.489Z,3.50
2019-04-03T14:32:29.077Z,3.37
2019-04-03T14:37:35.181Z,3.87
2019-04-03T14:42:41.057Z,2.98
2019-04-03T14:47:47.519Z,3.10
2019-04-03T14:52:53.681Z,3.52
2019-04-03T14:57:59.743Z,4.42
2019-04-03T15:03:06.944Z,3.45
2019-04-03T15:08:12.900Z,2.27
2019-04-03T15:13:19.051Z,2.30
2019-04-03T15:18:25.816Z,2.65
2019-04-03T15:23:32.016Z,2.20
2019-04-03T15:28:38.300Z,2.47
2019-04-03T15:33:44.630Z,2.42
2019-04-03T15:38:50.438Z,3.72
2019-04-03T15:43:55.888Z,3.60
2019-04-03T15:49:02.087Z,2.55
2019-04-03T15:54:09.278Z,8.05
2019-04-03T15:59:15.392Z,21.00
2019-04-03T16:04:21.704Z,8.03
2019-04-03T16:09:27.894Z,5.17
2019-04-03T16:14:34.130Z,6.50
2019-04-03T16:19:42.317Z,14.65
2019-04-03T16:24:47.861Z,14.38
2019-04-03T16:29:55.520Z,18.20
2019-04-03T16:35:01.437Z,9.20
2019-04-03T16:40:07.913Z,15.45
2019-04-03T16:45:14.997Z,7.50
2019-04-03T16:50:20.838Z,9.35
2019-04-03T16:55:27.198Z,9.40
2019-04-03T17:00:33.589Z,12.43
2019-04-03T17:05:39.593Z,13.45
2019-04-03T17:10:45.577Z,8.83
2019-04-03T17:15:51.309Z,11.12
2019-04-03T17:20:57.098Z,11.73
2019-04-03T17:26:03.817Z,12.68
2019-04-03T17:31:09.818Z,12.85
2019-04-03T17:36:17.720Z,8.40
2019-04-03T17:41:24.232Z,13.38
2019-04-03T17:46:30.270Z,19.60
2019-04-03T17:51:36.266Z,41.53
2019-04-03T17:56:43.059Z,34.90
2019-04-03T18:01:52.144Z,14.40
2019-04-03T18:06:57.506Z,15.80
2019-04-03T18:12:04.029Z,14.47
2019-04-03T18:17:12.556Z,18.80
2019-04-03T18:22:20.188Z,9.75
2019-04-03T18:27:26.557Z,10.70
2019-04-03T18:32:32.748Z,11.12
2019-04-03T18:37:40.817Z,12.98
2019-04-03T18:42:49.300Z,12.80
2019-04-03T18:47:54.257Z,9.78
2019-04-03T18:53:00.176Z,7.40
2019-04-03T18:58:05.928Z,15.80
2019-04-03T19:03:11.727Z,9.40
2019-04-03T19:08:18.715Z,16.15
2019-04-03T19:13:24.797Z,13.53
2019-04-03T19:18:31.962Z,12.23
2019-04-03T19:23:49.101Z,10.95
2019-04-03T19:28:45.657Z,8.80
2019-04-03T19:33:50.741Z,10.10
2019-04-03T19:38:56.709Z,11.35
2019-04-03T19:44:02.987Z,9.43
2019-04-03T19:49:08.958Z,11.80
2019-04-03T19:54:16.524Z,5.40
2019-04-03T19:59:22.137Z,6.05
2019-04-03T20:04:28.252Z,10.03
2019-04-03T20:09:34.148Z,10.38
2019-04-03T20:14:42.215Z,9.48
2019-04-03T20:19:47.987Z,7.40
2019-04-03T20:24:59.865Z,7.35
2019-04-03T20:30:01.981Z,7.75
2019-04-03T20:35:08.400Z,6.87
2019-04-03T20:40:17.266Z,8.50
2019-04-03T20:45:23.377Z,5.70
2019-04-03T20:50:30.698Z,7.35
2019-04-03T20:55:36.730Z,4.22
2019-04-03T21:00:42.432Z,6.37
2019-04-03T21:05:48.789Z,4.92
2019-04-03T21:10:55.247Z,3.95
2019-04-03T21:16:01.307Z,3.92
2019-04-03T21:21:07.332Z,4.92
2019-04-03T21:26:13.498Z,3.65
2019-04-03T21:31:19.557Z,5.05
2019-04-03T21:36:25.606Z,4.28
2019-04-03T21:41:31.577Z,4.17
2019-04-03T21:46:39.670Z,3.95
2019-04-03T21:51:45.165Z,1.87
2019-04-03T21:56:51.197Z,2.52
2019-04-03T22:01:56.879Z,2.77
2019-04-03T22:07:02.796Z,4.20
2019-04-03T22:12:08.968Z,5.35
2019-04-03T22:17:15.078Z,4.53
2019-04-03T22:22:21.548Z,5.62
2019-04-03T22:27:27.308Z,3.35
2019-04-03T22:32:33.187Z,5.20
2019-04-03T22:37:38.988Z,3.27
2019-04-03T22:42:45.726Z,2.27
2019-04-03T22:47:51.997Z,3.27
2019-04-03T22:52:58.416Z,2.80
2019-04-03T22:58:04.090Z,4.75
2019-04-03T23:03:10.048Z,3.27
2019-04-03T23:08:15.887Z,2.30
2019-04-03T23:13:23.167Z,2.92
2019-04-03T23:18:29.177Z,2.15
2019-04-03T23:23:35.248Z,2.25
2019-04-03T23:28:41.207Z,2.92
2019-04-03T23:33:47.820Z,1.80
2019-04-03T23:38:56.393Z,3.58
2019-04-03T23:44:01.929Z,2.85
2019-04-03T23:49:08.147Z,2.10
2019-04-03T23:54:14.052Z,2.27
2019-04-03T23:59:20.221Z,2.70
